createdAt,value
2018-03-08T00:01:11.675Z,59.53
2018-03-08T00:03:39.192Z,61.77
2018-03-08T00:06:06.705Z,60.03
2018-03-08T00:08:34.222Z,60.17
2018-03-08T00:11:01.750Z,62.07
2018-03-08T00:13:29.275Z,60.13
2018-03-08T00:15:56.800Z,60.93
2018-03-08T00:18:24.359Z,61.07
2018-03-08T00:20:51.875Z,65.83
2018-03-08T00:23:19.398Z,63.00
2018-03-08T00:25:46.910Z,60.67
2018-03-08T00:28:14.424Z,63.27
2018-03-08T00:30:41.955Z,62.67
2018-03-08T00:33:09.483Z,64.73
2018-03-08T00:35:37.031Z,63.20
2018-03-08T00:38:04.539Z,64.30
2018-03-08T00:40:32.059Z,63.53
2018-03-08T00:42:59.578Z,66.00
2018-03-08T00:45:27.098Z,65.77
2018-03-08T00:47:54.634Z,67.40
2018-03-08T00:50:22.158Z,64.97
2018-03-08T00:52:49.680Z,66.97
2018-03-08T00:55:17.197Z,66.67
2018-03-08T00:57:44.718Z,65.00
2018-03-08T01:00:12.257Z,67.43
2018-03-08T01:02:39.775Z,67.30
2018-03-08T01:05:07.314Z,66.73
2018-03-08T01:07:34.843Z,67.43
2018-03-08T01:10:02.373Z,67.63
2018-03-08T01:12:29.894Z,65.67
2018-03-08T01:14:57.421Z,69.20
2018-03-08T01:17:24.936Z,69.97
2018-03-08T01:19:52.488Z,66.90
2018-03-08T01:22:20.004Z,68.90
2018-03-08T01:24:47.528Z,67.83
2018-03-08T01:27:15.075Z,67.77
2018-03-08T01:29:42.602Z,64.80
2018-03-08T01:32:10.121Z,67.60
2018-03-08T01:34:37.637Z,66.80
2018-03-08T01:37:05.154Z,67.63
2018-03-08T01:39:32.671Z,65.80
2018-03-08T01:42:00.193Z,68.13
2018-03-08T01:44:27.718Z,63.93
2018-03-08T01:46:55.238Z,68.77
2018-03-08T01:49:22.750Z,67.20
2018-03-08T01:52:02.318Z,68.20
2018-03-08T01:54:29.838Z,68.27
2018-03-08T01:56:57.378Z,64.83
2018-03-08T01:59:24.910Z,66.33
2018-03-08T02:01:52.430Z,65.83
2018-03-08T02:04:19.952Z,65.73
2018-03-08T02:06:47.474Z,66.37
2018-03-08T02:09:14.993Z,65.83
2018-03-08T02:11:42.504Z,67.13
2018-03-08T02:14:10.029Z,68.47
2018-03-08T02:16:37.541Z,65.90
2018-03-08T02:19:05.049Z,63.30
2018-03-08T02:21:32.566Z,64.67
2018-03-08T02:24:00.086Z,63.73
2018-03-08T02:26:27.621Z,64.27
2018-03-08T02:28:55.137Z,65.03
2018-03-08T02:31:22.655Z,65.67
2018-03-08T02:33:50.175Z,66.70
2018-03-08T02:36:17.689Z,65.40
2018-03-08T02:38:45.211Z,64.87
2018-03-08T02:41:12.729Z,64.67
2018-03-08T02:43:40.245Z,67.33
2018-03-08T02:46:07.759Z,63.40
2018-03-08T02:48:35.276Z,67.93
2018-03-08T02:51:02.787Z,66.57
2018-03-08T02:53:30.330Z,63.83
2018-03-08T02:55:57.854Z,67.27
2018-03-08T02:58:25.405Z,68.23
2018-03-08T03:00:52.922Z,65.63
2018-03-08T03:03:20.446Z,64.87
2018-03-08T03:05:47.970Z,65.17
2018-03-08T03:08:15.508Z,68.47
2018-03-08T03:10:43.027Z,66.70
2018-03-08T03:13:10.542Z,67.63
2018-03-08T03:15:38.064Z,69.63
2018-03-08T03:18:05.593Z,66.63
2018-03-08T03:20:33.115Z,68.10
2018-03-08T03:23:00.639Z,66.93
2018-03-08T03:25:28.161Z,65.90
2018-03-08T03:27:55.682Z,66.23
2018-03-08T03:30:23.199Z,63.97
2018-03-08T03:32:50.724Z,68.47
2018-03-08T03:35:18.242Z,67.00
2018-03-08T03:37:45.789Z,67.03
2018-03-08T03:40:13.309Z,65.00
2018-03-08T03:42:40.820Z,66.87
2018-03-08T03:45:08.339Z,64.63
2018-03-08T03:47:35.868Z,67.77
2018-03-08T03:50:03.404Z,66.77
2018-03-08T03:52:30.925Z,66.07
2018-03-08T03:54:58.437Z,67.00
2018-03-08T03:57:25.963Z,64.63
2018-03-08T03:59:53.500Z,65.43
2018-03-08T04:02:21.027Z,65.13
2018-03-08T04:04:48.555Z,64.57
2018-03-08T04:07:16.079Z,66.47
2018-03-08T04:09:43.602Z,64.03
2018-03-08T04:12:11.163Z,64.47
2018-03-08T04:14:38.684Z,63.17
2018-03-08T04:17:06.239Z,64.50
2018-03-08T04:19:33.775Z,66.27
2018-03-08T04:22:01.298Z,65.67
2018-03-08T04:24:28.830Z,63.60
2018-03-08T04:26:56.351Z,64.50
2018-03-08T04:29:23.881Z,66.43
2018-03-08T04:31:51.402Z,61.70
2018-03-08T04:34:18.930Z,64.03
2018-03-08T04:36:46.453Z,62.13
2018-03-08T04:39:14.005Z,61.43
2018-03-08T04:41:41.540Z,61.40
2018-03-08T04:44:09.065Z,62.23
2018-03-08T04:46:36.592Z,59.00
2018-03-08T04:49:04.112Z,61.33
2018-03-08T04:51:31.628Z,60.80
2018-03-08T04:53:59.140Z,58.93
2018-03-08T04:56:26.657Z,61.77
2018-03-08T04:58:54.177Z,60.10
2018-03-08T05:01:21.689Z,59.17
2018-03-08T05:03:49.210Z,56.90
2018-03-08T05:06:16.789Z,56.20
2018-03-08T05:08:44.312Z,56.13
2018-03-08T05:11:11.863Z,55.33
2018-03-08T05:13:39.385Z,56.00
2018-03-08T05:16:06.904Z,54.93
2018-03-08T05:18:34.442Z,57.00
2018-03-08T05:21:01.956Z,54.57
2018-03-08T05:23:29.474Z,51.47
2018-03-08T05:25:56.998Z,52.70
2018-03-08T05:28:24.525Z,53.10
2018-03-08T05:30:52.082Z,48.87
2018-03-08T05:33:19.592Z,49.23
2018-03-08T05:35:47.114Z,49.57
2018-03-08T05:38:14.631Z,47.60
2018-03-08T05:40:42.157Z,47.50
2018-03-08T05:43:09.681Z,49.10
2018-03-08T05:45:37.201Z,45.93
2018-03-08T05:48:04.721Z,45.33
2018-03-08T05:50:32.238Z,46.27
2018-03-08T05:52:59.763Z,45.30
2018-03-08T05:55:27.283Z,44.23
2018-03-08T05:57:54.797Z,45.03
2018-03-08T06:00:22.313Z,45.67
2018-03-08T06:02:49.832Z,43.10
2018-03-08T06:05:17.349Z,44.57
2018-03-08T06:07:44.863Z,46.23
2018-03-08T06:10:12.383Z,42.97
2018-03-08T06:12:39.893Z,41.73
2018-03-08T06:15:07.411Z,41.27
2018-03-08T06:17:34.929Z,41.57
2018-03-08T06:20:02.440Z,39.13
2018-03-08T06:22:29.974Z,41.53
2018-03-08T06:24:57.489Z,37.93
2018-03-08T06:27:25.018Z,37.00
2018-03-08T06:29:52.537Z,35.43
2018-03-08T06:32:20.058Z,35.90
2018-03-08T06:34:47.572Z,36.27
2018-03-08T06:37:15.122Z,36.17
2018-03-08T06:39:42.643Z,34.17
2018-03-08T06:42:10.175Z,33.30
2018-03-08T06:44:38.669Z,32.77
2018-03-08T06:47:06.347Z,32.87
2018-03-08T06:49:33.892Z,31.53
2018-03-08T06:52:01.502Z,29.87
2018-03-08T06:54:28.957Z,30.07
2018-03-08T06:56:56.474Z,31.30
2018-03-08T06:59:24.093Z,30.17
2018-03-08T07:01:51.814Z,28.50
2018-03-08T07:04:19.362Z,30.30
2018-03-08T07:06:46.882Z,28.83
2018-03-08T07:09:14.393Z,26.90
2018-03-08T07:11:41.911Z,28.53
2018-03-08T07:14:09.429Z,27.67
2018-03-08T07:16:36.946Z,29.50
2018-03-08T07:19:04.719Z,28.10
2018-03-08T07:21:32.238Z,29.00
2018-03-08T07:23:59.750Z,28.40
2018-03-08T07:26:27.293Z,28.20
2018-03-08T07:28:54.839Z,28.43
2018-03-08T07:31:22.360Z,26.37
2018-03-08T07:33:49.901Z,27.47
2018-03-08T07:36:17.440Z,26.23
2018-03-08T07:38:44.966Z,27.00
2018-03-08T07:41:12.493Z,27.20
2018-03-08T07:43:40.014Z,25.67
2018-03-08T07:46:07.546Z,25.57
2018-03-08T07:48:35.122Z,24.47
2018-03-08T07:51:02.674Z,22.37
2018-03-08T07:53:30.189Z,23.53
2018-03-08T07:55:57.712Z,21.70
2018-03-08T07:58:25.241Z,22.87
2018-03-08T08:00:52.757Z,20.63
2018-03-08T08:03:20.273Z,20.50
2018-03-08T08:05:59.708Z,20.10
2018-03-08T08:11:31.455Z,18.33
2018-03-08T08:13:58.975Z,18.23
2018-03-08T08:16:26.495Z,17.60
2018-03-08T08:18:54.006Z,16.93
2018-03-08T08:21:21.616Z,17.97
2018-03-08T08:23:49.124Z,16.57
2018-03-08T08:26:16.650Z,17.23
2018-03-08T08:28:44.298Z,16.87
2018-03-08T08:31:11.871Z,17.57
2018-03-08T08:33:39.389Z,16.70
2018-03-08T08:36:06.926Z,17.13
2018-03-08T08:38:34.435Z,18.67
2018-03-08T08:41:01.963Z,18.83
2018-03-08T08:43:29.480Z,17.23
2018-03-08T08:45:57.003Z,17.80
2018-03-08T08:48:24.580Z,17.43
2018-03-08T08:50:52.101Z,17.93
2018-03-08T08:53:19.629Z,16.70
2018-03-08T08:55:47.154Z,16.30
2018-03-08T08:58:14.676Z,15.90
2018-03-08T09:00:42.194Z,15.60
2018-03-08T09:03:09.718Z,16.17
2018-03-08T09:05:37.251Z,15.07
2018-03-08T09:08:04.770Z,15.30
2018-03-08T09:10:32.291Z,15.57
2018-03-08T09:12:59.807Z,15.33
2018-03-08T09:15:27.325Z,14.83
2018-03-08T09:17:54.834Z,14.17
2018-03-08T09:20:22.354Z,15.20
2018-03-08T09:22:49.870Z,13.43
2018-03-08T09:25:17.387Z,13.63
2018-03-08T09:27:44.924Z,13.80
2018-03-08T09:30:12.457Z,12.47
2018-03-08T09:32:39.977Z,13.67
2018-03-08T09:35:07.494Z,13.00
2018-03-08T09:37:35.010Z,13.03
2018-03-08T09:40:02.531Z,13.47
2018-03-08T09:42:30.057Z,12.90
2018-03-08T09:44:57.573Z,12.67
2018-03-08T09:47:25.095Z,12.33
2018-03-08T09:49:52.604Z,11.70
2018-03-08T09:52:20.126Z,12.30
2018-03-08T09:54:47.638Z,11.80
2018-03-08T09:57:15.154Z,11.70
2018-03-08T09:59:42.672Z,11.20
2018-03-08T10:02:11.079Z,12.97
2018-03-08T10:04:38.594Z,13.30
2018-03-08T10:07:06.110Z,12.80
2018-03-08T10:09:33.626Z,12.93
2018-03-08T10:12:01.148Z,13.37
2018-03-08T10:14:28.675Z,13.97
2018-03-08T10:16:56.195Z,15.20
2018-03-08T10:19:23.723Z,15.00
2018-03-08T10:21:51.241Z,15.47
2018-03-08T10:24:18.762Z,15.70
2018-03-08T10:26:46.280Z,15.83
2018-03-08T10:29:13.793Z,15.30
2018-03-08T10:31:41.317Z,16.93
2018-03-08T10:34:08.848Z,16.03
2018-03-08T10:36:36.366Z,16.30
2018-03-08T10:39:03.894Z,15.90
2018-03-08T10:43:58.973Z,16.60
2018-03-08T10:46:26.481Z,16.47
2018-03-08T10:51:21.560Z,17.33
2018-03-08T10:53:49.079Z,16.77
2018-03-08T10:56:16.600Z,18.97
2018-03-08T10:58:44.213Z,18.50
2018-03-08T11:01:17.381Z,17.80
2018-03-08T11:03:48.774Z,18.80
2018-03-08T11:06:20.306Z,19.20
2018-03-08T11:08:47.833Z,18.93
2018-03-08T11:11:15.343Z,18.97
2018-03-08T11:13:42.862Z,20.67
2018-03-08T11:16:10.380Z,19.97
2018-03-08T11:18:37.899Z,19.20
2018-03-08T11:21:05.413Z,21.10
2018-03-08T11:23:32.934Z,20.83
2018-03-08T11:26:00.457Z,20.77
2018-03-08T11:28:27.975Z,20.57
2018-03-08T11:30:55.480Z,21.90
2018-03-08T11:33:22.999Z,21.17
2018-03-08T11:35:50.506Z,21.67
2018-03-08T11:38:18.034Z,22.97
2018-03-08T11:40:45.555Z,21.80
2018-03-08T11:43:13.074Z,21.33
2018-03-08T11:45:40.594Z,20.83
2018-03-08T11:48:08.138Z,21.33
2018-03-08T11:50:35.653Z,20.07
2018-03-08T11:53:03.175Z,20.27
2018-03-08T11:55:30.686Z,21.10
2018-03-08T11:57:58.212Z,19.83
2018-03-08T12:00:25.733Z,20.43
2018-03-08T12:02:53.245Z,19.63
2018-03-08T12:05:20.789Z,20.50
2018-03-08T12:07:48.422Z,20.30
2018-03-08T12:10:15.941Z,19.87
2018-03-08T12:12:43.461Z,20.80
2018-03-08T12:15:10.977Z,19.17
2018-03-08T12:17:38.491Z,19.57
2018-03-08T12:20:06.009Z,19.37
2018-03-08T12:22:33.528Z,18.77
2018-03-08T12:25:01.062Z,19.83
2018-03-08T12:27:28.580Z,19.77
2018-03-08T12:29:56.105Z,19.23
2018-03-08T12:32:23.634Z,19.10
2018-03-08T12:34:51.149Z,19.10
2018-03-08T12:37:18.657Z,19.70
2018-03-08T12:39:46.172Z,19.33
2018-03-08T12:42:13.737Z,19.57
2018-03-08T12:44:41.260Z,18.93
2018-03-08T12:47:08.789Z,19.03
2018-03-08T12:49:36.297Z,18.93
2018-03-08T12:52:03.806Z,18.97
2018-03-08T12:54:31.346Z,18.73
2018-03-08T12:56:58.874Z,20.80
2018-03-08T12:59:26.386Z,17.97
2018-03-08T13:01:53.907Z,18.13
2018-03-08T13:04:21.467Z,18.33
2018-03-08T13:06:48.994Z,18.70
2018-03-08T13:09:16.510Z,18.30
2018-03-08T13:11:44.038Z,19.47
2018-03-08T13:14:11.573Z,18.50
2018-03-08T13:16:39.105Z,17.17
2018-03-08T13:19:06.622Z,18.40
2018-03-08T13:21:34.143Z,16.63
2018-03-08T13:24:01.676Z,17.60
2018-03-08T13:26:29.194Z,16.70
2018-03-08T13:28:56.720Z,16.00
2018-03-08T13:31:24.246Z,16.30
2018-03-08T13:33:51.757Z,16.13
2018-03-08T13:36:19.281Z,16.13
2018-03-08T13:38:46.826Z,15.83
2018-03-08T13:41:14.336Z,15.83
2018-03-08T13:43:41.859Z,15.40
2018-03-08T13:46:09.381Z,14.83
2018-03-08T13:48:36.913Z,14.10
2018-03-08T13:51:04.458Z,14.53
2018-03-08T13:53:31.985Z,14.10
2018-03-08T13:55:59.509Z,14.00
2018-03-08T13:58:27.029Z,12.83
2018-03-08T14:00:54.558Z,12.43
2018-03-08T14:03:22.077Z,12.73
2018-03-08T14:05:49.595Z,12.47
2018-03-08T14:08:17.106Z,11.47
2018-03-08T14:10:44.624Z,12.37
2018-03-08T14:13:12.287Z,11.53
2018-03-08T14:15:39.814Z,11.53
2018-03-08T14:18:07.332Z,13.30
2018-03-08T14:20:34.866Z,11.50
2018-03-08T14:23:02.382Z,11.57
2018-03-08T14:25:29.904Z,10.60
2018-03-08T14:27:57.438Z,10.13
2018-03-08T14:30:24.956Z,10.93
2018-03-08T14:32:52.501Z,9.83
2018-03-08T14:35:20.016Z,10.13
2018-03-08T14:37:47.536Z,9.60
2018-03-08T14:40:15.058Z,8.33
2018-03-08T14:42:42.573Z,7.60
2018-03-08T14:45:10.082Z,7.60
2018-03-08T14:47:37.606Z,7.07
2018-03-08T14:50:05.130Z,7.30
2018-03-08T14:52:32.626Z,6.83
2018-03-08T14:55:00.146Z,6.30
2018-03-08T14:57:27.674Z,5.73
2018-03-08T14:59:55.193Z,5.23
2018-03-08T15:02:22.707Z,5.83
2018-03-08T15:04:50.209Z,5.47
2018-03-08T15:07:17.726Z,5.00
2018-03-08T15:09:45.325Z,4.30
2018-03-08T15:12:12.830Z,4.33
2018-03-08T15:14:40.489Z,4.50
2018-03-08T15:17:07.992Z,4.53
2018-03-08T15:19:35.512Z,4.10
2018-03-08T15:22:03.028Z,3.87
2018-03-08T15:24:30.542Z,4.03
2018-03-08T15:26:58.085Z,3.83
2018-03-08T15:29:25.606Z,3.80
2018-03-08T15:31:53.138Z,3.63
2018-03-08T15:34:20.645Z,3.67
2018-03-08T15:36:48.154Z,3.47
2018-03-08T15:39:15.649Z,3.40
2018-03-08T15:41:43.159Z,2.93
2018-03-08T15:44:10.671Z,3.23
2018-03-08T15:46:38.178Z,3.43
2018-03-08T15:49:05.747Z,2.97
2018-03-08T15:51:33.278Z,3.10
2018-03-08T15:54:00.790Z,3.40
2018-03-08T15:56:28.296Z,2.90
2018-03-08T15:58:55.798Z,3.30
2018-03-08T16:01:23.316Z,3.07
2018-03-08T16:03:50.822Z,3.47
2018-03-08T16:09:37.301Z,2.90
2018-03-08T16:12:04.821Z,3.20
2018-03-08T16:14:32.349Z,2.90
2018-03-08T16:17:00.083Z,2.57
2018-03-08T16:19:27.599Z,3.00
2018-03-08T16:21:55.098Z,3.17
2018-03-08T16:24:22.709Z,3.13
2018-03-08T16:26:50.249Z,3.30
2018-03-08T16:29:17.784Z,3.60
2018-03-08T16:31:45.303Z,3.27
2018-03-08T16:34:12.821Z,3.30
2018-03-08T16:36:40.325Z,3.30
2018-03-08T16:39:07.830Z,3.60
2018-03-08T16:41:35.331Z,3.70
2018-03-08T16:44:02.829Z,3.57
2018-03-08T16:46:30.329Z,3.70
2018-03-08T16:48:57.829Z,3.63
2018-03-08T16:51:25.345Z,3.90
2018-03-08T16:53:52.852Z,3.87
2018-03-08T16:56:20.356Z,3.87
2018-03-08T16:58:47.856Z,4.37
2018-03-08T17:01:15.363Z,4.83
2018-03-08T17:03:42.887Z,4.33
2018-03-08T17:06:10.401Z,5.03
2018-03-08T17:08:37.901Z,4.73
2018-03-08T17:11:05.413Z,5.10
2018-03-08T17:13:32.924Z,4.80
2018-03-08T17:16:00.483Z,4.80
2018-03-08T17:18:28.237Z,5.20
2018-03-08T17:20:55.755Z,5.50
2018-03-08T17:23:23.261Z,5.50
2018-03-08T17:25:50.773Z,5.10
2018-03-08T17:28:18.313Z,4.80
2018-03-08T17:30:45.855Z,5.77
2018-03-08T17:33:13.372Z,6.23
2018-03-08T17:35:40.882Z,6.47
2018-03-08T17:38:08.395Z,6.23
2018-03-08T17:40:35.906Z,5.40
2018-03-08T17:43:03.414Z,6.17
2018-03-08T17:45:30.928Z,5.77
2018-03-08T17:47:58.438Z,5.43
2018-03-08T17:50:25.953Z,5.80
2018-03-08T17:52:53.472Z,6.03
2018-03-08T17:55:20.984Z,6.00
2018-03-08T17:57:48.517Z,6.90
2018-03-08T18:00:16.028Z,6.17
2018-03-08T18:02:43.536Z,6.33
2018-03-08T18:05:11.055Z,6.53
2018-03-08T18:07:38.567Z,7.43
2018-03-08T18:10:06.116Z,6.80
2018-03-08T18:12:33.628Z,6.67
2018-03-08T18:15:01.143Z,6.80
2018-03-08T18:17:28.659Z,6.80
2018-03-08T18:19:56.179Z,6.73
2018-03-08T18:22:23.680Z,7.47
2018-03-08T18:24:51.208Z,6.73
2018-03-08T18:27:18.729Z,6.37
2018-03-08T18:29:46.243Z,6.47
2018-03-08T18:32:13.758Z,6.47
2018-03-08T18:34:41.253Z,7.30
2018-03-08T18:37:08.761Z,6.77
2018-03-08T18:39:36.279Z,6.50
2018-03-08T18:42:03.779Z,6.20
2018-03-08T18:44:31.285Z,6.07
2018-03-08T18:46:58.780Z,6.10
2018-03-08T18:49:26.296Z,6.43
2018-03-08T18:51:53.796Z,6.10
2018-03-08T18:54:21.313Z,5.83
2018-03-08T18:56:48.838Z,5.80
2018-03-08T18:59:16.354Z,5.83
2018-03-08T19:01:43.893Z,6.00
2018-03-08T19:04:11.396Z,5.93
2018-03-08T19:06:38.912Z,6.17
2018-03-08T19:09:06.417Z,5.53
2018-03-08T19:11:33.935Z,5.10
2018-03-08T19:14:01.450Z,5.00
2018-03-08T19:16:28.959Z,6.10
2018-03-08T19:18:56.469Z,5.70
2018-03-08T19:21:23.972Z,5.13
2018-03-08T19:23:51.486Z,5.40
2018-03-08T19:26:18.992Z,5.63
2018-03-08T19:28:46.556Z,4.80
2018-03-08T19:31:14.065Z,5.27
2018-03-08T19:33:41.576Z,4.80
2018-03-08T19:36:09.076Z,4.90
2018-03-08T19:38:36.648Z,5.17
2018-03-08T19:41:04.159Z,5.83
2018-03-08T19:43:31.652Z,5.50
2018-03-08T19:45:59.186Z,5.00
2018-03-08T19:48:26.734Z,5.20
2018-03-08T19:50:54.250Z,5.07
2018-03-08T19:53:21.754Z,4.47
2018-03-08T19:55:49.283Z,5.27
2018-03-08T19:58:16.907Z,5.10
2018-03-08T20:00:44.420Z,4.37
2018-03-08T20:03:12.044Z,5.03
2018-03-08T20:05:39.579Z,4.60
2018-03-08T20:08:07.101Z,4.90
2018-03-08T20:10:34.615Z,4.90
2018-03-08T20:13:02.849Z,4.80
2018-03-08T20:15:30.364Z,4.50
2018-03-08T20:17:57.877Z,4.63
2018-03-08T20:20:25.385Z,4.50
2018-03-08T20:22:52.888Z,4.70
2018-03-08T20:25:20.416Z,4.67
2018-03-08T20:27:47.933Z,4.77
2018-03-08T20:30:16.069Z,4.70
2018-03-08T20:32:44.064Z,4.47
2018-03-08T20:35:11.707Z,4.37
2018-03-08T20:37:39.315Z,4.50
2018-03-08T20:40:06.852Z,4.87
2018-03-08T20:42:34.408Z,4.80
2018-03-08T20:45:01.958Z,5.20
2018-03-08T20:47:29.500Z,4.50
2018-03-08T20:49:57.036Z,4.90
2018-03-08T20:52:24.605Z,4.33
2018-03-08T20:54:52.158Z,4.57
2018-03-08T20:57:19.682Z,4.63
2018-03-08T20:59:47.224Z,5.03
2018-03-08T21:02:14.790Z,4.70
2018-03-08T21:04:42.344Z,4.40
2018-03-08T21:07:09.877Z,4.53
2018-03-08T21:09:37.416Z,4.77
2018-03-08T21:12:04.950Z,4.47
2018-03-08T21:14:32.496Z,4.40
2018-03-08T21:17:00.038Z,4.50
2018-03-08T21:19:27.582Z,4.00
2018-03-08T21:21:55.146Z,4.10
2018-03-08T21:24:22.694Z,4.77
2018-03-08T21:26:50.851Z,5.03
2018-03-08T21:29:20.155Z,4.20
2018-03-08T21:31:47.692Z,4.37
2018-03-08T21:34:15.230Z,4.40
2018-03-08T21:36:42.908Z,4.40
2018-03-08T21:39:11.323Z,4.43
2018-03-08T21:41:38.873Z,4.60
2018-03-08T21:44:06.431Z,4.47
2018-03-08T21:46:33.966Z,4.87
2018-03-08T21:49:01.514Z,5.30
2018-03-08T21:51:29.065Z,4.73
2018-03-08T21:53:56.611Z,4.50
2018-03-08T21:56:24.146Z,4.80
2018-03-08T21:58:51.695Z,4.87
2018-03-08T22:01:19.237Z,5.17
2018-03-08T22:03:46.782Z,4.90
2018-03-08T22:06:14.326Z,5.23
2018-03-08T22:08:41.864Z,4.80
2018-03-08T22:11:10.228Z,5.33
2018-03-08T22:13:37.767Z,4.47
2018-03-08T22:16:05.308Z,4.80
2018-03-08T22:18:33.638Z,5.13
2018-03-08T22:21:02.359Z,4.90
2018-03-08T22:23:29.920Z,5.20
2018-03-08T22:25:58.522Z,4.63
2018-03-08T22:28:26.062Z,5.27
2018-03-08T22:30:54.394Z,5.03
2018-03-08T22:33:21.940Z,5.27
2018-03-08T22:35:49.474Z,4.97
2018-03-08T22:38:17.031Z,4.80
2018-03-08T22:40:44.575Z,4.40
2018-03-08T22:43:13.030Z,5.00
2018-03-08T22:45:40.584Z,5.17
2018-03-08T22:48:08.123Z,4.70
2018-03-08T22:50:35.688Z,5.82
2018-03-08T22:53:03.976Z,4.97
2018-03-08T22:55:31.516Z,4.63
2018-03-08T22:58:03.335Z,4.13
2018-03-08T23:00:30.886Z,3.53
2018-03-08T23:03:04.114Z,2.83
2018-03-08T23:05:31.675Z,2.90
2018-03-08T23:07:59.246Z,2.80
2018-03-08T23:10:26.794Z,2.60
2018-03-08T23:12:55.286Z,2.60
2018-03-08T23:15:22.833Z,2.40
2018-03-08T23:17:50.599Z,2.40
2018-03-08T23:20:18.135Z,2.20
2018-03-08T23:22:45.687Z,2.23
2018-03-08T23:25:13.235Z,1.93
2018-03-08T23:27:40.790Z,1.93
2018-03-08T23:30:08.318Z,1.80
2018-03-08T23:32:36.045Z,2.10
2018-03-08T23:35:03.701Z,2.00
2018-03-08T23:37:32.078Z,2.60
2018-03-08T23:39:59.614Z,1.97
2018-03-08T23:42:27.729Z,2.00
2018-03-08T23:44:55.265Z,2.33
2018-03-08T23:47:22.835Z,1.83
2018-03-08T23:49:50.379Z,1.87
2018-03-08T23:52:18.648Z,1.90
2018-03-08T23:54:46.184Z,1.90
2018-03-08T23:57:13.735Z,1.90
2018-03-08T23:59:41.514Z,1.83
